sensor_id;sensor_type;location;lat;lon;timestamp;pressure;altitude;pressure_sealevel;temperature;humidity
71638;BME280;59485;43.542;-5.676;2022-12-18T05:30:52;101556.59;;;8.00;100.00
71638;BME280;59485;43.542;-5.676;2022-12-18T05:33:19;101550.19;;;8.09;100.00
71638;BME280;59485;43.542;-5.676;2022-12-18T05:35:53;101563.16;;;8.24;100.00
71638;BME280;59485;43.542;-5.676;2022-12-18T05:38:21;101560.81;;;8.29;100.00
71638;BME280;59485;43.542;-5.676;2022-12-18T05:40:48;101558.34;;;8.36;100.00
71638;BME280;59485;43.542;-5.676;2022-12-18T05:43:14;101570.38;;;8.43;100.00
71638;BME280;59485;43.542;-5.676;2022-12-18T05:45:40;101567.63;;;8.43;100.00
71638;BME280;59485;43.542;-5.676;2022-12-18T05:48:06;101572.50;;;8.49;100.00
71638;BME280;59485;43.542;-5.676;2022-12-18T05:50:39;101553.88;;;8.53;100.00
71638;BME280;59485;43.542;-5.676;2022-12-18T05:53:06;101547.34;;;8.46;100.00
71638;BME280;59485;43.542;-5.676;2022-12-18T05:55:36;101546.25;;;8.56;100.00
71638;BME280;59485;43.542;-5.676;2022-12-18T05:58:03;101539.06;;;8.55;100.00
71638;BME280;59485;43.542;-5.676;2022-12-18T06:00:29;101556.84;;;8.59;100.00
71638;BME280;59485;43.542;-5.676;2022-12-18T06:02:55;101552.78;;;8.63;100.00
71638;BME280;59485;43.542;-5.676;2022-12-18T06:05:21;101557.09;;;8.66;100.00
71638;BME280;59485;43.542;-5.676;2022-12-18T06:07:46;101558.25;;;8.63;100.00
71638;BME280;59485;43.542;-5.676;2022-12-18T06:10:12;101555.66;;;8.62;100.00
71638;BME280;59485;43.542;-5.676;2022-12-18T06:12:37;101559.09;;;8.64;100.00
71638;BME280;59485;43.542;-5.676;2022-12-18T06:15:03;101559.56;;;8.59;100.00
71638;BME280;59485;43.542;-5.676;2022-12-18T06:17:30;101548.28;;;8.37;100.00
71638;BME280;59485;43.542;-5.676;2022-12-18T06:19:56;101553.09;;;8.43;100.00
71638;BME280;59485;43.542;-5.676;2022-12-18T06:22:22;101536.03;;;8.41;100.00
71638;BME280;59485;43.542;-5.676;2022-12-18T06:24:47;101551.78;;;8.47;100.00
71638;BME280;59485;43.542;-5.676;2022-12-18T06:27:13;101545.16;;;8.49;100.00
71638;BME280;59485;43.542;-5.676;2022-12-18T06:29:39;101546.53;;;8.53;100.00
71638;BME280;59485;43.542;-5.676;2022-12-18T06:32:04;101545.22;;;8.57;100.00
71638;BME280;59485;43.542;-5.676;2022-12-18T06:34:32;101555.28;;;8.57;100.00
71638;BME280;59485;43.542;-5.676;2022-12-18T06:36:58;101553.44;;;8.57;100.00
71638;BME280;59485;43.542;-5.676;2022-12-18T06:39:24;101543.97;;;8.52;100.00
71638;BME280;59485;43.542;-5.676;2022-12-18T06:41:50;101540.06;;;8.54;100.00
71638;BME280;59485;43.542;-5.676;2022-12-18T06:44:15;101538.13;;;8.47;100.00
71638;BME280;59485;43.542;-5.676;2022-12-18T06:46:41;101537.19;;;8.56;100.00
71638;BME280;59485;43.542;-5.676;2022-12-18T06:49:06;101536.69;;;8.60;100.00
71638;BME280;59485;43.542;-5.676;2022-12-18T06:51:34;101539.97;;;8.64;100.00
71638;BME280;59485;43.542;-5.676;2022-12-18T06:54:00;101534.34;;;8.65;100.00
71638;BME280;59485;43.542;-5.676;2022-12-18T06:56:26;101530.44;;;8.68;100.00
71638;BME280;59485;43.542;-5.676;2022-12-18T06:58:52;101533.34;;;8.67;100.00
71638;BME280;59485;43.542;-5.676;2022-12-18T07:01:18;101529.75;;;8.66;100.00
71638;BME280;59485;43.542;-5.676;2022-12-18T07:03:43;101544.50;;;8.73;100.00
71638;BME280;59485;43.542;-5.676;2022-12-18T07:06:17;101545.03;;;8.77;100.00
71638;BME280;59485;43.542;-5.676;2022-12-18T07:08:44;101547.44;;;8.80;100.00
71638;BME280;59485;43.542;-5.676;2022-12-18T07:11:10;101550.00;;;8.81;100.00
71638;BME280;59485;43.542;-5.676;2022-12-18T07:13:35;101548.13;;;8.82;100.00
71638;BME280;59485;43.542;-5.676;2022-12-18T07:16:20;101557.03;;;8.84;100.00
71638;BME280;59485;43.542;-5.676;2022-12-18T07:18:46;101557.34;;;8.81;100.00
71638;BME280;59485;43.542;-5.676;2022-12-18T07:21:14;101545.94;;;8.85;100.00
71638;BME280;59485;43.542;-5.676;2022-12-18T07:23:43;101551.56;;;8.84;100.00
71638;BME280;59485;43.542;-5.676;2022-12-18T07:26:11;101547.81;;;8.85;100.00
71638;BME280;59485;43.542;-5.676;2022-12-18T07:28:38;101544.53;;;8.81;100.00
71638;BME280;59485;43.542;-5.676;2022-12-18T07:31:10;101546.78;;;8.86;100.00
71638;BME280;59485;43.542;-5.676;2022-12-18T07:33:36;101561.66;;;8.83;100.00
71638;BME280;59485;43.542;-5.676;2022-12-18T07:36:06;101554.31;;;8.84;100.00
71638;BME280;59485;43.542;-5.676;2022-12-18T07:38:34;101555.47;;;8.81;100.00
71638;BME280;59485;43.542;-5.676;2022-12-18T07:41:18;101557.91;;;8.84;100.00
71638;BME280;59485;43.542;-5.676;2022-12-18T07:43:44;101560.84;;;8.91;100.00
71638;BME280;59485;43.542;-5.676;2022-12-18T07:46:10;101555.06;;;8.94;100.00
71638;BME280;59485;43.542;-5.676;2022-12-18T07:48:36;101546.00;;;8.93;100.00
71638;BME280;59485;43.542;-5.676;2022-12-18T07:51:04;101552.16;;;8.95;100.00
71638;BME280;59485;43.542;-5.676;2022-12-18T07:53:30;101554.41;;;9.00;100.00
71638;BME280;59485;43.542;-5.676;2022-12-18T07:58:26;101552.78;;;9.15;100.00
71638;BME280;59485;43.542;-5.676;2022-12-18T08:00:52;101544.75;;;9.14;100.00
71638;BME280;59485;43.542;-5.676;2022-12-18T08:03:18;101555.72;;;9.22;100.00
71638;BME280;59485;43.542;-5.676;2022-12-18T08:05:44;101550.75;;;9.17;100.00
71638;BME280;59485;43.542;-5.676;2022-12-18T08:08:09;101551.66;;;9.26;100.00
71638;BME280;59485;43.542;-5.676;2022-12-18T08:10:35;101559.00;;;9.25;100.00
71638;BME280;59485;43.542;-5.676;2022-12-18T08:13:00;101559.31;;;9.22;100.00
71638;BME280;59485;43.542;-5.676;2022-12-18T08:15:26;101545.13;;;9.19;100.00
71638;BME280;59485;43.542;-5.676;2022-12-18T08:17:51;101564.13;;;9.20;100.00
71638;BME280;59485;43.542;-5.676;2022-12-18T08:20:17;101554.59;;;9.32;100.00
71638;BME280;59485;43.542;-5.676;2022-12-18T08:22:44;101555.44;;;9.33;100.00
71638;BME280;59485;43.542;-5.676;2022-12-18T08:25:10;101552.88;;;9.31;100.00
71638;BME280;59485;43.542;-5.676;2022-12-18T08:27:36;101556.50;;;9.40;100.00
71638;BME280;59485;43.542;-5.676;2022-12-18T08:30:03;101557.63;;;9.55;100.00
71638;BME280;59485;43.542;-5.676;2022-12-18T08:32:28;101558.13;;;9.59;100.00
71638;BME280;59485;43.542;-5.676;2022-12-18T08:34:54;101555.97;;;9.70;100.00
71638;BME280;59485;43.542;-5.676;2022-12-18T08:37:19;101549.31;;;9.73;100.00
71638;BME280;59485;43.542;-5.676;2022-12-18T08:39:45;101546.06;;;9.77;100.00
71638;BME280;59485;43.542;-5.676;2022-12-18T08:42:10;101545.91;;;9.79;100.00
71638;BME280;59485;43.542;-5.676;2022-12-18T08:44:54;101553.09;;;9.88;100.00
71638;BME280;59485;43.542;-5.676;2022-12-18T08:47:20;101559.59;;;9.87;100.00
71638;BME280;59485;43.542;-5.676;2022-12-18T08:49:46;101555.00;;;9.96;100.00
71638;BME280;59485;43.542;-5.676;2022-12-18T08:52:11;101555.53;;;9.99;100.00
71638;BME280;59485;43.542;-5.676;2022-12-18T08:54:37;101552.09;;;9.97;100.00
71638;BME280;59485;43.542;-5.676;2022-12-18T08:57:02;101552.13;;;10.05;100.00
71638;BME280;59485;43.542;-5.676;2022-12-18T08:59:28;101558.31;;;10.15;100.00
71638;BME280;59485;43.542;-5.676;2022-12-18T09:01:54;101562.81;;;10.25;100.00
71638;BME280;59485;43.542;-5.676;2022-12-18T09:04:20;101568.13;;;10.26;100.00
71638;BME280;59485;43.542;-5.676;2022-12-18T09:06:46;101573.78;;;10.33;100.00
71638;BME280;59485;43.542;-5.676;2022-12-18T09:09:11;101577.22;;;10.35;100.00
71638;BME280;59485;43.542;-5.676;2022-12-18T09:11:37;101574.09;;;10.22;100.00
71638;BME280;59485;43.542;-5.676;2022-12-18T09:14:03;101572.91;;;10.24;100.00
71638;BME280;59485;43.542;-5.676;2022-12-18T09:16:36;101573.44;;;10.36;100.00
71638;BME280;59485;43.542;-5.676;2022-12-18T09:19:04;101566.59;;;10.40;100.00
71638;BME280;59485;43.542;-5.676;2022-12-18T09:21:34;101571.41;;;10.46;100.00
71638;BME280;59485;43.542;-5.676;2022-12-18T09:24:00;101555.81;;;10.46;100.00
71638;BME280;59485;43.542;-5.676;2022-12-18T09:26:26;101566.25;;;10.59;100.00
71638;BME280;59485;43.542;-5.676;2022-12-18T09:28:52;101578.25;;;10.66;100.00
71638;BME280;59485;43.542;-5.676;2022-12-18T09:31:20;101582.88;;;10.66;100.00
71638;BME280;59485;43.542;-5.676;2022-12-18T09:33:46;101579.97;;;10.75;100.00
71638;BME280;59485;43.542;-5.676;2022-12-18T09:36:14;101577.19;;;10.91;100.00
71638;BME280;59485;43.542;-5.676;2022-12-18T09:38:40;101590.56;;;11.03;100.00
71638;BME280;59485;43.542;-5.676;2022-12-18T09:43:53;101596.72;;;11.21;100.00
71638;BME280;59485;43.542;-5.676;2022-12-18T09:46:26;101600.13;;;11.31;100.00
71638;BME280;59485;43.542;-5.676;2022-12-18T09:48:57;101607.63;;;11.45;100.00
71638;BME280;59485;43.542;-5.676;2022-12-18T09:51:36;101606.56;;;11.54;100.00
71638;BME280;59485;43.542;-5.676;2022-12-18T09:54:11;101604.19;;;11.59;100.00
71638;BME280;59485;43.542;-5.676;2022-12-18T09:56:40;101592.84;;;11.62;100.00
71638;BME280;59485;43.542;-5.676;2022-12-18T09:59:17;101596.41;;;11.71;100.00
71638;BME280;59485;43.542;-5.676;2022-12-18T10:01:44;101597.06;;;11.81;100.00
71638;BME280;59485;43.542;-5.676;2022-12-18T10:04:09;101608.22;;;11.88;100.00
71638;BME280;59485;43.542;-5.676;2022-12-18T10:06:42;101601.84;;;11.95;100.00
71638;BME280;59485;43.542;-5.676;2022-12-18T10:10:02;101601.47;;;11.98;100.00
71638;BME280;59485;43.542;-5.676;2022-12-18T10:12:56;101605.25;;;11.97;100.00
71638;BME280;59485;43.542;-5.676;2022-12-18T10:21:32;101599.34;;;12.09;100.00
71638;BME280;59485;43.542;-5.676;2022-12-18T10:26:31;101584.38;;;12.11;100.00
71638;BME280;59485;43.542;-5.676;2022-12-18T10:28:58;101579.88;;;12.18;100.00
71638;BME280;59485;43.542;-5.676;2022-12-18T10:31:24;101580.22;;;12.23;100.00
71638;BME280;59485;43.542;-5.676;2022-12-18T10:33:50;101564.69;;;12.30;100.00
71638;BME280;59485;43.542;-5.676;2022-12-18T10:36:16;101572.53;;;12.42;100.00
71638;BME280;59485;43.542;-5.676;2022-12-18T10:38:42;101571.59;;;12.49;100.00
71638;BME280;59485;43.542;-5.676;2022-12-18T10:46:35;101538.56;;;12.72;100.00
71638;BME280;59485;43.542;-5.676;2022-12-18T10:49:00;101530.22;;;12.80;100.00
71638;BME280;59485;43.542;-5.676;2022-12-18T10:51:30;101542.78;;;12.83;100.00
71638;BME280;59485;43.542;-5.676;2022-12-18T10:54:03;101542.59;;;12.99;100.00
71638;BME280;59485;43.542;-5.676;2022-12-18T10:56:31;101537.00;;;13.07;100.00
71638;BME280;59485;43.542;-5.676;2022-12-18T10:59:03;101548.28;;;13.20;100.00
71638;BME280;59485;43.542;-5.676;2022-12-18T11:04:24;101543.81;;;13.48;100.00
71638;BME280;59485;43.542;-5.676;2022-12-18T11:06:59;101552.06;;;13.63;100.00
71638;BME280;59485;43.542;-5.676;2022-12-18T11:09:29;101553.47;;;13.74;100.00
71638;BME280;59485;43.542;-5.676;2022-12-18T11:11:59;101547.69;;;13.83;100.00
71638;BME280;59485;43.542;-5.676;2022-12-18T11:16:52;101528.53;;;13.97;100.00
71638;BME280;59485;43.542;-5.676;2022-12-18T11:19:38;101526.25;;;14.00;100.00
71638;BME280;59485;43.542;-5.676;2022-12-18T11:22:37;101531.44;;;14.10;100.00
71638;BME280;59485;43.542;-5.676;2022-12-18T11:27:41;101508.75;;;14.29;100.00
71638;BME280;59485;43.542;-5.676;2022-12-18T11:30:33;101513.88;;;14.53;100.00
71638;BME280;59485;43.542;-5.676;2022-12-18T11:33:06;101511.84;;;14.62;100.00
71638;BME280;59485;43.542;-5.676;2022-12-18T11:36:01;101518.59;;;14.81;100.00
71638;BME280;59485;43.542;-5.676;2022-12-18T11:38:33;101518.72;;;14.94;100.00
71638;BME280;59485;43.542;-5.676;2022-12-18T11:44:55;101511.84;;;15.18;100.00
71638;BME280;59485;43.542;-5.676;2022-12-18T11:47:55;101495.97;;;15.26;100.00
71638;BME280;59485;43.542;-5.676;2022-12-18T11:50:25;101473.50;;;15.36;100.00
71638;BME280;59485;43.542;-5.676;2022-12-18T11:52:53;101472.25;;;15.38;100.00
71638;BME280;59485;43.542;-5.676;2022-12-18T11:55:31;101464.56;;;15.34;100.00
71638;BME280;59485;43.542;-5.676;2022-12-18T12:03:48;101476.25;;;15.77;100.00
71638;BME280;59485;43.542;-5.676;2022-12-18T12:20:33;101458.69;;;16.04;100.00
71638;BME280;59485;43.542;-5.676;2022-12-18T12:39:28;101422.53;;;16.32;100.00
71638;BME280;59485;43.542;-5.676;2022-12-18T12:41:56;101421.47;;;16.40;100.00
71638;BME280;59485;43.542;-5.676;2022-12-18T12:45:01;101422.75;;;16.57;100.00
71638;BME280;59485;43.542;-5.676;2022-12-18T12:47:32;101399.34;;;16.66;100.00
71638;BME280;59485;43.542;-5.676;2022-12-18T12:50:05;101407.00;;;16.77;100.00
71638;BME280;59485;43.542;-5.676;2022-12-18T12:52:40;101416.34;;;16.90;100.00
71638;BME280;59485;43.542;-5.676;2022-12-18T12:55:20;101398.88;;;16.96;100.00
71638;BME280;59485;43.542;-5.676;2022-12-18T12:58:05;101404.81;;;17.06;100.00
71638;BME280;59485;43.542;-5.676;2022-12-18T13:00:59;101407.09;;;17.22;100.00
71638;BME280;59485;43.542;-5.676;2022-12-18T13:05:59;101397.03;;;17.34;100.00
71638;BME280;59485;43.542;-5.676;2022-12-18T13:08:30;101383.34;;;17.39;100.00
71638;BME280;59485;43.542;-5.676;2022-12-18T13:10:58;101379.91;;;17.50;100.00
71638;BME280;59485;43.542;-5.676;2022-12-18T13:13:51;101378.81;;;17.51;100.00
71638;BME280;59485;43.542;-5.676;2022-12-18T13:16:21;101370.72;;;17.50;100.00
71638;BME280;59485;43.542;-5.676;2022-12-18T13:18:55;101373.06;;;17.46;100.00
71638;BME280;59485;43.542;-5.676;2022-12-18T13:21:29;101370.50;;;17.51;100.00
71638;BME280;59485;43.542;-5.676;2022-12-18T13:23:56;101373.88;;;17.60;100.00
71638;BME280;59485;43.542;-5.676;2022-12-18T13:31:57;101368.69;;;17.77;100.00
71638;BME280;59485;43.542;-5.676;2022-12-18T13:36:41;101346.44;;;17.83;100.00
71638;BME280;59485;43.542;-5.676;2022-12-18T13:41:35;101350.84;;;17.91;100.00
71638;BME280;59485;43.542;-5.676;2022-12-18T13:44:25;101363.44;;;17.93;100.00
71638;BME280;59485;43.542;-5.676;2022-12-18T13:46:52;101362.38;;;17.94;100.00
71638;BME280;59485;43.542;-5.676;2022-12-18T13:52:01;101359.53;;;18.01;100.00
71638;BME280;59485;43.542;-5.676;2022-12-18T13:54:39;101354.41;;;18.05;100.00
71638;BME280;59485;43.542;-5.676;2022-12-18T13:57:35;101348.84;;;18.05;100.00
71638;BME280;59485;43.542;-5.676;2022-12-18T14:00:33;101350.78;;;18.04;100.00
71638;BME280;59485;43.542;-5.676;2022-12-18T14:03:17;101338.59;;;18.05;100.00
71638;BME280;59485;43.542;-5.676;2022-12-18T14:05:44;101333.91;;;18.06;98.59
71638;BME280;59485;43.542;-5.676;2022-12-18T14:08:15;101338.97;;;18.09;96.78
71638;BME280;59485;43.542;-5.676;2022-12-18T14:10:43;101348.78;;;18.11;95.58
71638;BME280;59485;43.542;-5.676;2022-12-18T14:13:11;101338.94;;;18.15;93.65
71638;BME280;59485;43.542;-5.676;2022-12-18T14:15:41;101347.03;;;18.17;94.80
71638;BME280;59485;43.542;-5.676;2022-12-18T14:20:34;101334.63;;;18.19;94.50
71638;BME280;59485;43.542;-5.676;2022-12-18T14:22:59;101331.00;;;18.19;94.52
71638;BME280;59485;43.542;-5.676;2022-12-18T14:25:27;101315.69;;;18.16;95.26
71638;BME280;59485;43.542;-5.676;2022-12-18T14:30:39;101324.81;;;18.17;92.71
71638;BME280;59485;43.542;-5.676;2022-12-18T14:33:13;101337.63;;;18.18;92.41
71638;BME280;59485;43.542;-5.676;2022-12-18T14:36:05;101334.19;;;18.22;92.17
71638;BME280;59485;43.542;-5.676;2022-12-18T14:38:38;101336.09;;;18.22;92.40
71638;BME280;59485;43.542;-5.676;2022-12-18T14:41:12;101339.53;;;18.17;96.22
71638;BME280;59485;43.542;-5.676;2022-12-18T14:43:43;101327.00;;;18.15;90.37
71638;BME280;59485;43.542;-5.676;2022-12-18T14:49:19;101344.50;;;18.15;93.91
71638;BME280;59485;43.542;-5.676;2022-12-18T14:51:48;101337.19;;;18.21;92.57
71638;BME280;59485;43.542;-5.676;2022-12-18T14:54:17;101326.78;;;18.16;90.47
71638;BME280;59485;43.542;-5.676;2022-12-18T14:56:51;101330.00;;;18.13;92.27
71638;BME280;59485;43.542;-5.676;2022-12-18T14:59:23;101315.50;;;18.11;90.80
71638;BME280;59485;43.542;-5.676;2022-12-18T15:02:03;101333.63;;;18.14;90.17
71638;BME280;59485;43.542;-5.676;2022-12-18T15:04:34;101334.69;;;18.13;90.06
71638;BME280;59485;43.542;-5.676;2022-12-18T15:07:26;101339.84;;;18.09;93.34
71638;BME280;59485;43.542;-5.676;2022-12-18T15:10:14;101339.69;;;18.04;91.77
71638;BME280;59485;43.542;-5.676;2022-12-18T15:12:45;101346.94;;;18.05;91.27
71638;BME280;59485;43.542;-5.676;2022-12-18T15:17:59;101362.31;;;18.01;90.59
71638;BME280;59485;43.542;-5.676;2022-12-18T15:20:25;101365.56;;;17.98;92.72
71638;BME280;59485;43.542;-5.676;2022-12-18T15:22:51;101366.38;;;17.98;90.20
71638;BME280;59485;43.542;-5.676;2022-12-18T15:27:54;101376.66;;;17.98;90.88
71638;BME280;59485;43.542;-5.676;2022-12-18T15:30:22;101374.47;;;18.00;91.11
71638;BME280;59485;43.542;-5.676;2022-12-18T15:32:48;101371.97;;;17.92;93.82
71638;BME280;59485;43.542;-5.676;2022-12-18T15:35:21;101370.28;;;17.91;92.97
71638;BME280;59485;43.542;-5.676;2022-12-18T15:37:48;101372.25;;;17.84;93.06
71638;BME280;59485;43.542;-5.676;2022-12-18T15:40:16;101371.41;;;17.83;94.13
71638;BME280;59485;43.542;-5.676;2022-12-18T15:42:42;101362.69;;;17.80;95.87
71638;BME280;59485;43.542;-5.676;2022-12-18T15:45:27;101360.41;;;17.70;94.09
71638;BME280;59485;43.542;-5.676;2022-12-18T15:47:52;101362.72;;;17.73;94.75
71638;BME280;59485;43.542;-5.676;2022-12-18T15:50:24;101361.25;;;17.71;94.98
71638;BME280;59485;43.542;-5.676;2022-12-18T15:52:52;101355.94;;;17.69;96.19
71638;BME280;59485;43.542;-5.676;2022-12-18T15:55:21;101354.25;;;17.61;96.63
71638;BME280;59485;43.542;-5.676;2022-12-18T15:58:06;101345.09;;;17.54;96.42
71638;BME280;59485;43.542;-5.676;2022-12-18T16:00:33;101339.78;;;17.53;96.75
71638;BME280;59485;43.542;-5.676;2022-12-18T16:03:00;101352.34;;;17.55;96.01
71638;BME280;59485;43.542;-5.676;2022-12-18T16:05:26;101367.53;;;17.53;95.93
71638;BME280;59485;43.542;-5.676;2022-12-18T16:07:52;101362.38;;;17.56;94.77
71638;BME280;59485;43.542;-5.676;2022-12-18T16:10:17;101362.38;;;17.56;96.27
71638;BME280;59485;43.542;-5.676;2022-12-18T16:12:43;101353.69;;;17.46;96.43
71638;BME280;59485;43.542;-5.676;2022-12-18T16:15:12;101359.22;;;17.53;96.05
71638;BME280;59485;43.542;-5.676;2022-12-18T16:17:39;101366.88;;;17.51;95.67
71638;BME280;59485;43.542;-5.676;2022-12-18T16:20:15;101370.50;;;17.51;94.91
71638;BME280;59485;43.542;-5.676;2022-12-18T16:22:42;101359.41;;;17.51;95.09
71638;BME280;59485;43.542;-5.676;2022-12-18T16:27:41;101373.72;;;17.48;97.48
71638;BME280;59485;43.542;-5.676;2022-12-18T16:30:12;101380.28;;;17.54;96.37
71638;BME280;59485;43.542;-5.676;2022-12-18T16:32:38;101376.28;;;17.50;97.28
71638;BME280;59485;43.542;-5.676;2022-12-18T16:35:04;101370.53;;;17.45;99.37
71638;BME280;59485;43.542;-5.676;2022-12-18T16:37:29;101384.00;;;17.41;98.91
71638;BME280;59485;43.542;-5.676;2022-12-18T16:39:55;101384.22;;;17.40;97.21
71638;BME280;59485;43.542;-5.676;2022-12-18T16:42:20;101382.97;;;17.36;98.50
71638;BME280;59485;43.542;-5.676;2022-12-18T16:44:47;101385.28;;;17.39;100.00
71638;BME280;59485;43.542;-5.676;2022-12-18T16:47:13;101386.81;;;17.28;100.00
71638;BME280;59485;43.542;-5.676;2022-12-18T16:49:39;101390.28;;;17.17;100.00
71638;BME280;59485;43.542;-5.676;2022-12-18T16:52:05;101377.75;;;17.08;100.00
71638;BME280;59485;43.542;-5.676;2022-12-18T16:54:31;101369.84;;;17.05;100.00
71638;BME280;59485;43.542;-5.676;2022-12-18T16:56:58;101371.56;;;17.06;100.00
71638;BME280;59485;43.542;-5.676;2022-12-18T16:59:25;101368.22;;;16.91;100.00
71638;BME280;59485;43.542;-5.676;2022-12-18T17:01:51;101379.28;;;16.91;100.00
71638;BME280;59485;43.542;-5.676;2022-12-18T17:04:17;101379.72;;;16.87;100.00
71638;BME280;59485;43.542;-5.676;2022-12-18T17:06:44;101380.13;;;16.84;100.00
71638;BME280;59485;43.542;-5.676;2022-12-18T17:09:12;101383.38;;;16.81;100.00
71638;BME280;59485;43.542;-5.676;2022-12-18T17:11:39;101379.53;;;16.76;100.00
71638;BME280;59485;43.542;-5.676;2022-12-18T17:14:10;101384.63;;;16.79;100.00
71638;BME280;59485;43.542;-5.676;2022-12-18T17:16:36;101381.44;;;16.75;100.00
71638;BME280;59485;43.542;-5.676;2022-12-18T17:19:02;101395.94;;;16.71;100.00
71638;BME280;59485;43.542;-5.676;2022-12-18T17:21:28;101389.97;;;16.54;100.00
71638;BME280;59485;43.542;-5.676;2022-12-18T17:23:53;101391.47;;;16.70;100.00
71638;BME280;59485;43.542;-5.676;2022-12-18T17:26:19;101384.44;;;16.67;100.00
71638;BME280;59485;43.542;-5.676;2022-12-18T17:28:44;101386.34;;;16.73;100.00
71638;BME280;59485;43.542;-5.676;2022-12-18T17:31:19;101384.88;;;16.71;100.00
71638;BME280;59485;43.542;-5.676;2022-12-18T17:33:58;101391.66;;;16.81;100.00
71638;BME280;59485;43.542;-5.676;2022-12-18T17:38:50;101405.50;;;16.75;100.00
71638;BME280;59485;43.542;-5.676;2022-12-18T17:41:16;101397.84;;;16.77;100.00
71638;BME280;59485;43.542;-5.676;2022-12-18T17:44:11;101403.59;;;16.69;100.00
71638;BME280;59485;43.542;-5.676;2022-12-18T17:47:09;101413.63;;;16.70;100.00
71638;BME280;59485;43.542;-5.676;2022-12-18T17:52:04;101414.25;;;16.78;100.00
71638;BME280;59485;43.542;-5.676;2022-12-18T17:54:29;101418.72;;;16.79;100.00
71638;BME280;59485;43.542;-5.676;2022-12-18T17:56:55;101417.44;;;16.75;100.00
71638;BME280;59485;43.542;-5.676;2022-12-18T17:59:21;101425.09;;;16.67;100.00
71638;BME280;59485;43.542;-5.676;2022-12-18T18:02:05;101425.09;;;16.67;100.00
71638;BME280;59485;43.542;-5.676;2022-12-18T18:04:31;101431.72;;;16.66;100.00
71638;BME280;59485;43.542;-5.676;2022-12-18T18:06:56;101443.22;;;16.63;100.00
71638;BME280;59485;43.542;-5.676;2022-12-18T18:11:56;101438.75;;;16.81;100.00
71638;BME280;59485;43.542;-5.676;2022-12-18T18:14:41;101437.44;;;16.84;100.00
71638;BME280;59485;43.542;-5.676;2022-12-18T18:17:06;101433.81;;;16.83;100.00
71638;BME280;59485;43.542;-5.676;2022-12-18T18:21:57;101433.59;;;16.98;100.00
71638;BME280;59485;43.542;-5.676;2022-12-18T18:27:04;101436.97;;;17.00;100.00
71638;BME280;59485;43.542;-5.676;2022-12-18T18:32:07;101438.91;;;16.93;100.00
71638;BME280;59485;43.542;-5.676;2022-12-18T18:42:02;101445.75;;;16.51;100.00
71638;BME280;59485;43.542;-5.676;2022-12-18T18:54:47;101450.00;;;16.54;100.00
71638;BME280;59485;43.542;-5.676;2022-12-18T18:57:15;101444.66;;;16.12;100.00
71638;BME280;59485;43.542;-5.676;2022-12-18T19:02:28;101441.06;;;16.25;100.00
71638;BME280;59485;43.542;-5.676;2022-12-18T19:07:29;101462.34;;;16.18;100.00
71638;BME280;59485;43.542;-5.676;2022-12-18T19:12:30;101458.06;;;16.16;100.00
71638;BME280;59485;43.542;-5.676;2022-12-18T19:15:18;101453.41;;;16.42;100.00
71638;BME280;59485;43.542;-5.676;2022-12-18T19:17:43;101448.28;;;16.26;100.00
71638;BME280;59485;43.542;-5.676;2022-12-18T19:30:30;101457.16;;;15.82;100.00
71638;BME280;59485;43.542;-5.676;2022-12-18T19:32:55;101442.66;;;15.80;100.00
71638;BME280;59485;43.542;-5.676;2022-12-18T19:35:20;101444.38;;;15.81;100.00
71638;BME280;59485;43.542;-5.676;2022-12-18T19:37:49;101436.72;;;15.83;100.00
71638;BME280;59485;43.542;-5.676;2022-12-18T19:40:14;101436.94;;;15.95;100.00
71638;BME280;59485;43.542;-5.676;2022-12-18T19:42:40;101437.00;;;16.01;100.00
71638;BME280;59485;43.542;-5.676;2022-12-18T19:45:05;101437.41;;;16.11;100.00
71638;BME280;59485;43.542;-5.676;2022-12-18T19:47:31;101430.00;;;16.19;100.00
71638;BME280;59485;43.542;-5.676;2022-12-18T19:49:56;101428.06;;;16.26;100.00
71638;BME280;59485;43.542;-5.676;2022-12-18T19:52:22;101438.06;;;16.33;100.00
71638;BME280;59485;43.542;-5.676;2022-12-18T19:54:59;101437.63;;;16.30;100.00
71638;BME280;59485;43.542;-5.676;2022-12-18T19:57:24;101420.59;;;16.20;100.00
71638;BME280;59485;43.542;-5.676;2022-12-18T19:59:50;101427.00;;;16.27;100.00
71638;BME280;59485;43.542;-5.676;2022-12-18T20:02:15;101411.03;;;16.29;100.00
71638;BME280;59485;43.542;-5.676;2022-12-18T20:04:43;101422.75;;;16.31;100.00
71638;BME280;59485;43.542;-5.676;2022-12-18T20:07:08;101413.19;;;16.27;100.00
71638;BME280;59485;43.542;-5.676;2022-12-18T20:09:34;101412.97;;;16.41;100.00
71638;BME280;59485;43.542;-5.676;2022-12-18T20:12:01;101429.16;;;16.44;100.00
71638;BME280;59485;43.542;-5.676;2022-12-18T20:14:27;101425.09;;;16.47;100.00
71638;BME280;59485;43.542;-5.676;2022-12-18T20:16:53;101416.38;;;16.50;100.00
71638;BME280;59485;43.542;-5.676;2022-12-18T20:19:18;101429.38;;;16.69;100.00
71638;BME280;59485;43.542;-5.676;2022-12-18T20:21:44;101436.41;;;16.72;100.00
71638;BME280;59485;43.542;-5.676;2022-12-18T20:24:10;101446.84;;;16.63;100.00
71638;BME280;59485;43.542;-5.676;2022-12-18T20:26:36;101449.78;;;16.48;100.00
71638;BME280;59485;43.542;-5.676;2022-12-18T20:29:02;101448.94;;;16.48;100.00
71638;BME280;59485;43.542;-5.676;2022-12-18T20:31:28;101433.59;;;16.39;100.00
71638;BME280;59485;43.542;-5.676;2022-12-18T20:33:55;101442.75;;;16.39;100.00
71638;BME280;59485;43.542;-5.676;2022-12-18T20:36:21;101441.50;;;16.42;100.00
71638;BME280;59485;43.542;-5.676;2022-12-18T20:38:52;101439.56;;;16.29;100.00
71638;BME280;59485;43.542;-5.676;2022-12-18T20:41:21;101429.56;;;16.48;100.00
71638;BME280;59485;43.542;-5.676;2022-12-18T20:43:47;101424.25;;;16.60;100.00
71638;BME280;59485;43.542;-5.676;2022-12-18T20:46:14;101419.38;;;16.62;100.00
71638;BME280;59485;43.542;-5.676;2022-12-18T20:48:41;101425.31;;;16.78;100.00